^^
Station Historical Data
Daily Summary for September 7, 2017 Units:  English    Metric   Both
« Previous Day
Next Day »
Daily Weekly Monthly Yearly Custom
  High: Low: Average:
Temperature: 71.4 °F 56.7 °F 63.1 °F
Dew Point: 58.8 °F 51.7 °F 56.3 °F
Humidity: 97% 54% 80%
Wind Speed: 6.0mph 0.0mph 1.8mph
Wind Gust: 20.0mph - -
Wind- - SW
Pressure: 30.01 in 29.82 in -
Precipitation: 0.07 in    
Historical Graphs
 
 
Tabular Data for September 7, 2017
Time Temperature Dew Point Pressure Wind Wind Speed Wind Gust Humidity Rainfall Rate (Hourly) Conditions
00:00 59.3 °F 58.4 °F 29.86 in WNW 1.0 mph 2.0 mph 97% 0.01 in RA
00:15 59.2 °F 58.3 °F 29.85 in Calm   1.0 mph 97% 0.02 in -RA
00:30 59.1 °F 58.2 °F 29.85 in Calm   2.0 mph 97% 0.00 in -RA
00:45 59.1 °F 58.3 °F 29.85 in Calm   2.0 mph 97% 0.00 in -RA
01:00 59.1 °F 58.2 °F 29.82 in Calm     97% 0.01 in -RA
01:15 59.1 °F 58.2 °F 29.82 in South 1.0 mph 2.0 mph 97% 0.00 in -RA
01:30 59.1 °F 58.2 °F 29.82 in Calm   2.0 mph 97% 0.00 in -RA
01:45 59.0 °F 58.2 °F 29.83 in Calm   1.0 mph 97% 0.00 in -RA
02:00 58.8 °F 58.0 °F 29.82 in Calm   2.0 mph 97% 0.00 in -RA
02:15 58.8 °F 58.0 °F 29.83 in Calm   3.0 mph 97% 0.00 in -DZ
02:30 58.8 °F 58.0 °F 29.83 in WSW 1.0 mph 2.0 mph 97% 0.01 in -DZ
02:45 59.0 °F 58.2 °F 29.83 in Calm   3.0 mph 97% 0.00 in -DZ
03:00 59.2 °F 58.3 °F 29.85 in Calm   5.0 mph 97% 0.00 in -DZ
03:15 59.3 °F 58.4 °F 29.84 in Calm   2.0 mph 97% 0.00 in -RA
03:30 59.3 °F 58.4 °F 29.84 in Calm   3.0 mph 97% 0.00 in -RA
03:45 59.5 °F 58.6 °F 29.83 in Calm   2.0 mph 97% 0.00 in -RA
04:00 59.5 °F 58.6 °F 29.83 in Calm   2.0 mph 97% 0.00 in -RA
04:15 59.6 °F 58.7 °F 29.83 in WSW 1.0 mph 6.0 mph 97% 0.00 in BKN
04:30 59.4 °F 58.5 °F 29.83 in SW 2.0 mph 6.0 mph 97% 0.00 in BKN
04:45 59.2 °F 58.3 °F 29.83 in South 2.0 mph 8.0 mph 97% 0.00 in BKN
05:00 58.4 °F 57.3 °F 29.84 in SSW 2.0 mph 8.0 mph 96% 0.00 in BKN
05:15 58.2 °F 57.4 °F 29.85 in SW 1.0 mph 7.0 mph 97% 0.03 in -RA
05:30 57.9 °F 57.1 °F 29.85 in Calm   3.0 mph 97% 0.00 in -RA
05:45 57.6 °F 56.8 °F 29.85 in Calm   3.0 mph 97% 0.00 in -RA
06:00 57.4 °F 56.6 °F 29.85 in SW 1.0 mph 5.0 mph 97% 0.00 in -RA
06:15 57.4 °F 56.6 °F 29.86 in SW 1.0 mph 7.0 mph 97% 0.00 in BKN
06:30 57.3 °F 56.5 °F 29.86 in SSW 1.0 mph 3.0 mph 97% 0.00 in BKN
06:45 57.1 °F 56.3 °F 29.86 in Calm   3.0 mph 97% 0.00 in BKN
07:00 56.8 °F 56.0 °F 29.87 in Calm   3.0 mph 97% 0.00 in BKN
07:15 56.7 °F 55.9 °F 29.87 in South 1.0 mph 5.0 mph 97% 0.00 in FEW
07:30 56.8 °F 56.0 °F 29.87 in Calm   5.0 mph 97% 0.00 in FEW
07:45 56.9 °F 56.1 °F 29.87 in Calm   3.0 mph 97% 0.00 in FEW
08:00 57.0 °F 56.2 °F 29.87 in South 2.0 mph 6.0 mph 97% 0.00 in FEW
08:15 57.3 °F 56.5 °F 29.88 in SW 1.0 mph 6.0 mph 97% 0.00 in FEW
08:30 58.2 °F 57.1 °F 29.88 in SSW 1.0 mph 8.0 mph 96% 0.00 in FEW
08:45 59.3 °F 57.8 °F 29.88 in SW 1.0 mph 5.0 mph 95% 0.00 in FEW
09:00 59.7 °F 57.7 °F 29.88 in SSW 1.0 mph 8.0 mph 93% 0.00 in FEW
09:15 60.1 °F 57.8 °F 29.88 in SW 3.0 mph 8.0 mph 92% 0.00 in FEW
09:30 60.6 °F 58.0 °F 29.88 in South 2.0 mph 10.0 mph 91% 0.00 in FEW
09:45 61.6 °F 58.0 °F 29.89 in Calm   8.0 mph 88% 0.00 in FEW
10:00 63.1 °F 58.8 °F 29.89 in SSW 1.0 mph 8.0 mph 86% 0.00 in FEW
10:15 63.4 °F 58.8 °F 29.90 in South 2.0 mph 9.0 mph 85% 0.00 in BKN
10:30 63.2 °F 57.7 °F 29.91 in SSW 5.0 mph 12.0 mph 82% 0.00 in BKN
10:45 62.9 °F 57.7 °F 29.90 in SW 3.0 mph 12.0 mph 83% 0.00 in BKN
11:00 63.2 °F 57.6 °F 29.91 in SSW 2.0 mph 7.0 mph 82% 0.00 in BKN
11:15 63.3 °F 57.4 °F 29.91 in WSW 3.0 mph 8.0 mph 81% 0.00 in BKN
11:30 63.9 °F 57.6 °F 29.91 in WSW 1.0 mph 9.0 mph 80% 0.00 in BKN
11:45 65.6 °F 57.8 °F 29.91 in SW 2.0 mph 10.0 mph 76% 0.00 in BKN
12:00 64.8 °F 57.4 °F 29.91 in South 1.0 mph 7.0 mph 77% 0.00 in BKN
12:15 65.2 °F 57.0 °F 29.91 in South 2.0 mph 8.0 mph 75% 0.00 in BKN
12:30 65.6 °F 57.1 °F 29.90 in SSW 1.0 mph 7.0 mph 74% 0.00 in BKN
12:45 65.8 °F 56.9 °F 29.91 in WSW 1.0 mph 9.0 mph 73% 0.00 in BKN
13:00 67.7 °F 57.2 °F 29.90 in WSW 2.0 mph 7.0 mph 69% 0.00 in BKN
13:15 69.5 °F 58.0 °F 29.90 in South 2.0 mph 10.0 mph 67% 0.00 in BKN
13:30 68.9 °F 58.3 °F 29.90 in SW 2.0 mph 9.0 mph 69% 0.00 in BKN
13:45 68.8 °F 57.8 °F 29.89 in WSW 3.0 mph 9.0 mph 68% 0.00 in BKN
14:00 69.3 °F 57.0 °F 29.89 in SW 3.0 mph 10.0 mph 65% 0.00 in BKN
14:15 69.4 °F 56.7 °F 29.89 in SSW 2.0 mph 12.0 mph 64% 0.00 in SCT
14:30 70.6 °F 57.4 °F 29.88 in SW 5.0 mph 10.0 mph 63% 0.00 in SCT
14:45 70.2 °F 57.0 °F 29.88 in SSW 2.0 mph 12.0 mph 63% 0.00 in SCT
15:00 69.9 °F 57.2 °F 29.88 in SSW 2.0 mph 9.0 mph 64% 0.00 in SCT
15:15 69.8 °F 57.1 °F 29.88 in SW 3.0 mph 8.0 mph 64% 0.00 in BKN
15:30 71.0 °F 56.9 °F 29.87 in SW 6.0 mph 14.0 mph 61% 0.00 in BKN
15:45 70.7 °F 55.2 °F 29.88 in SW 2.0 mph 13.0 mph 58% 0.00 in BKN
16:00 70.9 °F 55.4 °F 29.88 in SW 5.0 mph 12.0 mph 58% 0.00 in BKN
16:15 71.3 °F 55.7 °F 29.87 in WSW 3.0 mph 12.0 mph 58% 0.00 in SCT
16:30 71.2 °F 54.7 °F 29.88 in SW 6.0 mph 18.0 mph 56% 0.00 in SCT
16:45 71.4 °F 55.4 °F 29.87 in WSW 6.0 mph 14.0 mph 57% 0.00 in SCT
17:00 70.3 °F 54.9 °F 29.88 in SW 5.0 mph 13.0 mph 58% 0.00 in SCT
17:15 70.4 °F 54.0 °F 29.89 in WSW 6.0 mph 12.0 mph 56% 0.00 in SCT
17:30 70.4 °F 53.5 °F 29.89 in SSW 3.0 mph 20.0 mph 55% 0.00 in SCT
17:45 71.1 °F 53.6 °F 29.89 in WSW 5.0 mph 12.0 mph 54% 0.00 in SCT
18:00 70.5 °F 53.6 °F 29.90 in SW 5.0 mph 14.0 mph 55% 0.00 in SCT
18:15 70.3 °F 54.3 °F 29.90 in SW 5.0 mph 12.0 mph 57% 0.00 in SCT
18:30 69.8 °F 54.4 °F 29.91 in SSW 2.0 mph 9.0 mph 58% 0.00 in SCT
18:45 69.2 °F 52.8 °F 29.91 in SSW 5.0 mph 12.0 mph 56% 0.00 in SCT
19:00 67.9 °F 52.6 °F 29.92 in SW 5.0 mph 10.0 mph 58% 0.00 in SCT
19:15 67.0 °F 51.7 °F 29.92 in SW 3.0 mph 12.0 mph 58% 0.00 in FEW
20:30 63.9 °F 52.8 °F 29.96 in Calm   2.0 mph 67% 0.00 in FEW
20:45 63.7 °F 52.5 °F 29.97 in Calm   5.0 mph 67% 0.00 in FEW
21:00 63.5 °F 52.7 °F 29.97 in SW 1.0 mph 5.0 mph 68% 0.00 in FEW
21:15 62.8 °F 52.5 °F 29.97 in Calm   4.0 mph 69% 0.00 in CLR
21:30 62.3 °F 52.4 °F 29.97 in SSW 2.0 mph 4.0 mph 70% 0.00 in CLR
21:45 62.1 °F 53.0 °F 29.98 in Calm   2.0 mph 72% 0.00 in CLR
22:00 62.2 °F 53.1 °F 29.99 in South 1.0 mph 8.0 mph 72% 0.00 in CLR
22:15 62.4 °F 53.3 °F 29.99 in SSW 2.0 mph 6.0 mph 72% 0.00 in BKN
22:30 62.2 °F 53.1 °F 30.00 in SW 2.0 mph 7.0 mph 72% 0.00 in BKN
22:45 61.7 °F 53.0 °F 30.00 in SW 3.0 mph 9.0 mph 73% 0.00 in BKN
23:00 61.2 °F 52.8 °F 30.00 in SW 2.0 mph 7.0 mph 74% 0.00 in BKN
23:30 60.7 °F 52.4 °F 30.00 in SW 3.0 mph 7.0 mph 74% 0.00 in SCT
23:45 60.7 °F 52.0 °F 30.01 in WSW 2.0 mph 12.0 mph 73% 0.00 in SCT
TarryTown NY Weather
Compliments of Weather Underground - 1.5 mb